Huvudsida
METAR-TAF:

METAR-TAF

Flygplatser :

Göteborg-Landvetter Airport

Göteborg-Landvetter, Sverige

latitud: 57-40N, longitud: 012-18E, höjd: 169 m

Aktuellt väderrapport

Denna rapport gjordes för 16 minuter sedan, klockan 05:50 UTC
Vind 10 kt från syd/sydost
Temperatur 4°C
Fuktighet 93%
Tryck 1033 hPa
Sikt 10 km eller mer
Inga moln under 1 500 m eller inga cumulonimbus

METAR: ESGG 160550Z 16010KT CAVOK 04/03 Q1033 R21/19//95

Tid: 07:06 (06:06 UTC)

Väderprognos

Denna rapport gjordes för 36 minuter sedan, klockan 05:30 UTC
Prognos gäller från 16 kl. 06 UTC till 17 kl. 06 UTC
Vind 8 kt från syd
Sikt 10 km eller mer
Inga moln under 1 500 m eller inga cumulonimbus
Blir
från 16 kl. 20 UTC till 16 kl. 23 UTC
Brutna moln på en höjd av 600 ft
Sannolikhet 40%
från 16 kl. 20 UTC till 17 kl. 06 UTC
Sikt: 4000 m
Brutna moln på en höjd av 400 ft
fuktdis

TAF: ESGG 160530Z 1606/1706 18008KT CAVOK BECMG 1620/1623 BKN006 PROB40 1620/1706 4000 BR BKN004

Aktuella väderrapporter och prognoser från 4000 flygplatser (METAR- och TAF-rapporter).

De tillgängliga stationerna syns som gula och röda prickar på kartan.

För musen över prickarna för att se namnen på stationerna.

Klicka sedan för att få väderrapporter och prognoser.

För att ändra kartan: Klicka på de gröna knapparna med ett svart kors på för att zooma in; den gröna knappen med ett streck på för att zooma ut; eller på de gröna pilarna för angränsande kartor.


METAR-TAF: